Latest Weather Observations for Bathurst Airport

IDN60801

Issued at 8:02 am EDT Monday 20 February 2017 (issued every 30 minutes, with the page automatically refreshed every 10 minutes)

About weather observations | Map of weather stations | Latest weather observations for NSW | Other Formats
Station Details ID: 063291 Name: BATHURST AIRPORT AWS Lat: -33.41 Lon: 149.65 Height: 744.5 m
Data from the previous 72 hours. | See also: Recent months at Bathurst Airport
Date/Time
EDT
Temp
°C
App
Temp
°C
Dew
Point
°C
Rel
Hum
%
Delta-T
°C
Wind Press
QNH
hPa
Press
MSL
hPa
Rain since
9am
mm
Dir  Spd
km/h
Gust
km/h
Spd
kts
Gust
kts
20/08:00am 10.8 7.9 4.7 66 2.9 W 9 13 5 7 1014.3 1010.6 0.0
20/07:30am 9.2 6.8 4.4 72 2.2 WNW 6 9 3 5 1014.1 1010.4 0.0
20/07:00am 8.2 5.5 3.9 74 1.9 W 7 11 4 6 1013.7 1010.0 0.0
20/06:30am 8.1 5.3 3.2 71 2.2 WNW 7 9 4 5 1013.3 1009.5 0.0
20/06:00am 8.0 4.6 1.8 65 2.7 SW 9 11 5 6 1012.8 1009.1 0.0
20/05:30am 9.0 4.9 2.1 62 3.0 WSW 13 17 7 9 1012.5 1008.8 0.0
20/05:00am 9.5 4.9 1.7 58 3.4 SW 15 19 8 10 1012.3 1008.6 0.0
20/04:30am 9.6 5.3 1.0 55 3.7 SW 13 20 7 11 1012.0 1008.2 0.0
20/04:00am 9.4 5.8 0.8 55 3.7 WNW 9 11 5 6 1011.8 1008.0 0.0
20/03:30am 9.6 6.0 0.8 54 3.8 WNW 9 13 5 7 1011.5 1007.8 0.0
20/03:00am 10.1 6.2 1.0 53 3.9 W 11 13 6 7 1011.6 1007.9 0.0
20/02:30am 9.9 6.8 0.3 51 4.1 WNW 6 9 3 5 1011.6 1007.9 0.0
20/02:00am 10.0 7.3 0.1 50 4.2 WNW 4 9 2 5 1011.8 1008.0 0.0
20/01:30am 10.5 8.5 0.0 48 4.4 CALM 0 0 0 0 1011.9 1008.1 0.0
20/01:00am 11.1 8.3 -0.4 45 4.9 N 4 9 2 5 1011.6 1007.9 0.0
20/12:30am 12.0 9.7 0.1 44 5.1 W 2 6 1 3 1011.5 1007.8 0.0
20/12:00am 12.0 8.3 0.1 44 5.1 WNW 9 11 5 6 1011.6 1007.9 0.0
 
Date/Time
EDT
Temp
°C
App
Temp
°C
Dew
Point
°C
Rel
Hum
%
Delta-T
°C
Wind Press
QNH
hPa
Press
MSL
hPa
Rain since
9am
mm
Dir  Spd
km/h
Gust
km/h
Spd
kts
Gust
kts
19/11:30pm 11.9 7.8 -0.3 43 5.2 WNW 11 13 6 7 1011.6 1007.9 0.0
19/11:00pm 12.3 8.1 -0.6 41 5.5 W 11 13 6 7 1011.5 1007.8 0.0
19/10:30pm 13.6 9.0 -1.2 36 6.3 W 13 17 7 9 1011.5 1007.8 0.0
19/10:00pm 15.1 9.4 -1.0 33 7.0 WSW 19 22 10 12 1011.3 1007.6 0.0
19/09:30pm 15.6 9.6 -1.4 31 7.3 WSW 20 26 11 14 1010.8 1007.0 0.0
19/09:00pm 16.6 10.6 -1.5 29 7.9 WSW 20 24 11 13 1010.8 1007.0 0.0
19/08:30pm 17.0 11.9 -2.1 27 8.2 WSW 15 20 8 11 1010.8 1007.0 0.0
19/08:00pm 17.5 11.5 -2.7 25 8.6 WSW 19 24 10 13 1010.4 1006.6 0.0
19/07:30pm 19.1 13.0 -2.5 23 9.4 WSW 20 26 11 14 1009.8 1006.0 0.0
19/07:00pm 20.1 12.8 -2.9 21 10.0 WSW 26 35 14 19 1009.3 1005.5 0.0
19/06:30pm 21.0 13.3 -2.8 20 10.4 WSW 28 35 15 19 1009.0 1005.2 0.0
19/06:00pm 21.6 13.9 -3.0 19 10.8 WSW 28 35 15 19 1008.9 1005.1 0.0
19/05:30pm 22.3 14.2 -3.1 18 11.2 WSW 30 39 16 21 1008.6 1004.8 0.0
19/05:00pm 23.5 16.3 -2.2 18 11.7 W 26 43 14 23 1008.5 1004.7 0.0
19/04:30pm 23.7 16.8 -2.8 17 11.9 W 24 33 13 18 1008.5 1004.7 0.0
19/04:00pm 24.8 18.5 -1.1 18 12.1 WNW 22 33 12 18 1008.6 1004.8 0.0
19/03:30pm 23.8 16.8 -0.5 20 11.4 WSW 26 37 14 20 1008.5 1004.7 0.0
19/03:00pm 23.2 16.2 -0.3 21 11.0 W 26 35 14 19 1008.9 1005.1 0.0
19/02:30pm 24.8 17.8 -0.4 19 11.9 WNW 26 39 14 21 1009.0 1005.2 0.0
19/02:00pm 25.1 18.3 0.6 20 11.9 WNW 26 39 14 21 1009.2 1005.4 0.0
19/01:30pm 23.8 18.2 1.4 23 10.9 W 20 32 11 17 1009.7 1005.9 0.0
19/01:00pm 23.7 18.8 2.0 24 10.7 W 17 30 9 16 1010.0 1006.3 0.0
19/12:30pm 22.4 17.5 2.0 26 9.9 W 17 28 9 15 1010.6 1006.8 0.0
19/12:00pm 21.9 17.4 2.1 27 9.6 WNW 15 24 8 13 1011.0 1007.2 0.0
19/11:30am 21.6 17.5 2.3 28 9.4 WNW 13 24 7 13 1011.4 1007.7 0.0
19/11:00am 18.5 14.7 1.5 32 8.0 WSW 11 20 6 11 1011.6 1007.9 0.0
19/10:30am 17.5 14.4 1.1 33 7.6 WSW 7 15 4 8 1011.9 1008.1 0.0
19/10:00am 16.7 12.6 2.0 37 6.9 SW 13 17 7 9 1012.1 1008.3 0.0
19/09:30am 15.6 11.7 1.4 38 6.5 SW 11 17 6 9 1012.2 1008.4 0.0
19/09:00am 14.7 11.6 3.5 47 5.3 WSW 9 11 5 6 1012.3 1008.6 0.2
19/08:30am 13.3 10.2 3.7 52 4.5 WSW 9 13 5 7 1012.2 1008.4 0.2
19/08:00am 13.0 11.2 3.7 53 4.4 SE 2 6 1 3 1012.2 1008.4 0.2
19/07:30am 11.0 9.0 4.5 64 3.1 S 4 6 2 3 1011.9 1008.1 0.2
19/07:00am 9.9 7.4 3.6 65 2.9 SSE 6 7 3 4 1011.8 1008.0 0.2
19/06:30am 9.8 7.3 3.8 66 2.8 SSW 6 7 3 4 1011.3 1007.6 0.2
19/06:00am 9.1 6.0 3.5 68 2.5 SSW 9 11 5 6 1010.8 1007.0 0.2
19/05:30am 9.2 6.1 3.6 68 2.5 SSW 9 11 5 6 1010.6 1006.8 0.2
19/05:00am 10.0 7.0 4.2 67 2.7 SSW 9 11 5 6 1010.5 1006.7 0.2
19/04:30am 11.1 8.7 4.3 63 3.2 SSW 6 7 3 4 1010.5 1006.7 0.2
19/04:00am 11.7 9.3 4.4 61 3.5 SSW 6 7 3 4 1010.5 1006.7 0.2
19/03:30am 11.7 9.2 4.9 63 3.2 SSW 7 9 4 5 1010.4 1006.6 0.2
19/03:00am 11.1 8.2 4.8 65 3.0 SW 9 11 5 6 1010.4 1006.6 0.2
19/02:30am 12.4 8.9 5.3 62 3.4 SW 13 15 7 8 1010.0 1006.3 0.2
19/02:00am 13.4 9.7 6.3 62 3.5 SW 15 19 8 10 1010.4 1006.6 0.2
19/01:30am 14.5 12.3 7.8 64 3.5 WSW 9 19 5 10 1010.5 1006.7 0.2
19/01:00am 13.3 12.5 6.6 64 3.4 CALM 0 0 0 0 1010.5 1006.7 0.2
19/12:30am 15.2 13.4 8.0 62 3.8 SW 7 7 4 4 1010.6 1006.8 0.2
19/12:00am 14.8 12.6 7.8 63 3.6 SW 9 11 5 6 1010.6 1006.8 0.2
 
Date/Time
EDT
Temp
°C
App
Temp
°C
Dew
Point
°C
Rel
Hum
%
Delta-T
°C
Wind Press
QNH
hPa
Press
MSL
hPa
Rain since
9am
mm
Dir  Spd
km/h
Gust
km/h
Spd
kts
Gust
kts
18/11:30pm 15.5 13.3 8.0 61 3.9 SW 9 11 5 6 1010.5 1006.7 0.2
18/11:00pm 16.9 14.8 8.3 57 4.6 S 9 11 5 6 1010.7 1006.9 0.2
18/10:30pm 17.1 14.3 8.5 57 4.6 SW 13 15 7 8 1010.8 1007.0 0.2
18/10:00pm 16.7 14.2 8.1 57 4.5 SW 11 13 6 7 1010.7 1006.9 0.2
18/09:30pm 18.1 15.3 8.4 53 5.2 SSW 13 15 7 8 1010.1 1006.4 0.2
18/09:00pm 19.4 15.8 8.4 49 5.9 SSW 17 22 9 12 1009.5 1005.7 0.2
18/08:30pm 20.6 16.2 8.9 47 6.4 SSW 22 26 12 14 1009.0 1005.2 0.2
18/08:00pm 21.6 17.3 9.2 45 6.9 SSW 22 30 12 16 1008.7 1005.0 0.2
18/07:30pm 23.1 18.5 9.8 43 7.5 SW 24 30 13 16 1008.4 1004.6 0.2
18/07:00pm 24.4 19.6 10.3 41 8.1 SW 26 32 14 17 1008.1 1004.3 0.2
18/06:30pm 25.4 20.4 10.8 40 8.5 WSW 28 37 15 20 1007.6 1003.8 0.2
18/06:00pm 26.7 22.0 12.0 40 8.8 WSW 28 35 15 19 1007.1 1003.3 0.2
18/05:30pm 27.5 22.5 12.3 39 9.1 SW 30 39 16 21 1007.1 1003.3 0.2
18/05:00pm 28.7 24.5 13.4 39 9.4 WSW 28 35 15 19 1007.0 1003.2 0.2
18/04:30pm 28.4 25.4 12.7 38 9.5 NW 20 32 11 17 1007.0 1003.2 0.2
18/04:00pm 28.5 24.8 12.8 38 9.5 NNW 24 37 13 20 1007.2 1003.4 0.2
18/03:30pm 28.8 24.1 13.1 38 9.6 NNW 30 37 16 20 1007.7 1003.9 0.2
18/03:00pm 29.0 25.4 13.2 37 9.7 NW 24 37 13 20 1008.1 1004.3 0.2
18/02:30pm 30.1 27.4 14.6 39 9.7 NW 22 32 12 17 1008.4 1004.6 0.2
18/02:00pm 28.8 26.5 14.6 42 8.9 NW 20 32 11 17 1008.7 1005.0 0.2
18/01:30pm 28.6 27.7 15.8 45 8.1 NW 15 24 8 13 1008.9 1005.1 0.2
18/01:00pm 26.8 24.9 15.2 49 7.3 W 19 26 10 14 1009.5 1005.7 0.2
18/12:30pm 27.2 25.5 16.2 51 7.0 W 20 28 11 15 1009.9 1006.2 0.2
18/12:00pm 25.1 23.4 15.7 56 5.9 W 19 24 10 13 1010.5 1006.7 0.2
18/11:30am 24.7 22.8 15.1 55 5.9 WNW 19 26 10 14 1010.7 1006.9 0.2
18/11:00am 24.9 24.4 15.8 57 5.7 WNW 13 19 7 10 1010.6 1006.8 0.2
18/10:30am 23.4 23.3 16.0 63 4.6 W 11 17 6 9 1010.8 1007.0 0.2
18/10:00am 23.7 22.3 15.5 60 5.1 NNW 17 26 9 14 1010.8 1007.0 0.2
18/09:30am 23.0 20.9 15.3 62 4.8 NNW 20 24 11 13 1010.9 1007.1 0.0
18/09:00am 23.9 21.8 16.2 62 4.8 NNW 22 30 12 16 1010.9 1007.1 0.6
18/08:30am 22.3 21.5 16.1 68 3.9 N 15 20 8 11 1010.7 1006.9 0.6
18/08:00am 21.2 21.7 16.6 75 2.9 NNE 9 13 5 7 1010.7 1006.9 0.6
18/07:30am 19.4 21.5 17.2 87 1.4 SSW 2 7 1 4 1010.8 1007.0 0.6
18/07:00am 18.4 20.6 16.6 89 1.1 CALM 0 0 0 0 1011.0 1007.2 0.6
18/06:30am 18.0 19.0 16.3 90 1.0 NNE 6 7 3 4 1010.4 1006.6 0.6
18/06:00am 18.4 19.3 16.6 89 1.1 W 7 11 4 6 1010.6 1006.8 0.6
18/05:30am 19.1 19.2 16.5 85 1.6 NW 11 15 6 8 1010.4 1006.6 0.6
18/05:00am 19.3 16.9 16.3 83 1.9 NNE 24 32 13 17 1009.3 1005.5 0.6
18/04:30am 18.6 17.9 17.3 92 0.8 NNE 17 19 9 10 1010.7 1006.9 0.6
18/04:00am 18.7 19.5 17.4 92 0.8 NW 9 11 5 6 1011.2 1007.5 0.6
18/03:30am 19.3 19.3 17.3 88 1.3 NE 13 17 7 9 1011.1 1007.4 0.4
18/03:00am 20.3 21.9 16.9 81 2.1 W 4 7 2 4 1011.2 1007.5 0.2
18/02:30am 20.5 20.5 15.1 71 3.3 WNW 9 15 5 8 1011.3 1007.6 0.0
18/02:00am 21.2 19.1 14.8 67 3.9 NNE 19 24 10 13 1010.9 1007.1 0.0
18/01:30am 20.7 19.3 15.5 72 3.2 NNE 17 22 9 12 1011.3 1007.6 0.0
18/01:00am 20.1 19.4 14.2 69 3.5 N 11 15 6 8 1011.8 1008.0 0.0
18/12:30am 21.2 19.5 14.8 67 3.9 NNE 17 20 9 11 1011.9 1008.1 0.0
18/12:00am 20.7 20.5 14.6 68 3.7 N 9 13 5 7 1012.2 1008.4 0.0
 
Date/Time
EDT
Temp
°C
App
Temp
°C
Dew
Point
°C
Rel
Hum
%
Delta-T
°C
Wind Press
QNH
hPa
Press
MSL
hPa
Rain since
9am
mm
Dir  Spd
km/h
Gust
km/h
Spd
kts
Gust
kts
17/11:30pm 21.1 20.3 14.0 64 4.3 N 11 15 6 8 1012.3 1008.6 0.0
17/11:00pm 22.3 21.1 13.9 59 5.1 NNE 13 22 7 12 1012.4 1008.7 0.0
17/10:30pm 24.0 20.1 14.4 55 5.9 NNE 28 33 15 18 1012.1 1008.3 0.0
17/10:00pm 24.1 22.2 14.2 54 6.0 NNE 17 22 9 12 1012.0 1008.2 0.0
17/09:30pm 24.1 22.8 13.6 52 6.3 NE 13 19 7 10 1011.6 1007.9 0.0
17/09:00pm 25.1 22.5 13.3 48 7.1 NNE 19 24 10 13 1011.0 1007.2 0.0
17/08:30pm 26.2 23.8 14.3 48 7.3 NNE 20 26 11 14 1010.9 1007.1 0.0
17/08:00pm 26.9 24.5 14.3 46 7.8 NNE 20 24 11 13 1010.7 1006.9 0.0
17/07:30pm 28.1 26.0 13.6 41 8.9 NE 17 22 9 12 1010.1 1006.4 0.0
17/07:00pm 28.7 26.1 13.8 40 9.2 ENE 20 26 11 14 1009.5 1005.7 0.0
17/06:43pm 28.4 24.2 13.5 40 9.1 ENE 28 37 15 20 1009.3 1005.5 0.0
17/06:30pm 28.8 27.4 13.5 39 9.4 E 13 20 7 11 1009.5 1005.7 0.0
17/06:00pm 32.6 28.9 8.1 22 14.1 W 17 22 9 12 1009.1 1005.3 0.0
17/05:30pm 34.1 28.5 7.2 19 15.3 W 26 37 14 20 1009.1 1005.3 0.0
17/05:00pm 31.4 28.1 12.7 32 11.5 SW 22 37 12 20 1009.2 1005.4 0.0
17/04:30pm 30.9 29.6 13.7 35 10.7 SW 13 20 7 11 1009.2 1005.4 0.0
17/04:00pm 28.8 27.6 15.0 43 8.7 SW 15 20 8 11 1009.9 1006.2 0.0
17/03:30pm 28.3 24.4 12.2 37 9.7 SSW 24 37 13 20 1010.4 1006.6 0.0
17/03:18pm 27.2 22.9 13.2 42 8.5 WSW 28 37 15 20 1010.5 1006.7 0.0
17/03:00pm 32.4 28.1 13.1 31 11.9 NNW 28 41 15 22 1010.4 1006.6 0.0
17/02:30pm 31.8 26.0 12.6 31 11.8 NW 35 50 19 27 1010.5 1006.7 0.0
17/02:23pm 32.0 26.6 12.3 30 12.0 NW 32 50 17 27 1010.5 1006.7 0.0
17/02:00pm 32.6 28.2 12.8 30 12.2 NW 28 41 15 22 1010.8 1007.0 0.0
17/01:34pm 34.9 30.2 14.2 28 13.1 NW 32 50 17 27 1011.5 1007.8 0.0
17/01:30pm 32.3 26.8 12.5 30 12.1 NNW 33 50 18 27 1011.5 1007.8 0.0
17/01:15pm 35.0 29.6 13.8 28 13.4 NNW 35 50 19 27 1011.9 1008.1 0.0
17/01:07pm 34.2 28.5 13.1 28 13.1 NNW 35 50 19 27 1011.9 1008.1 0.0
17/01:00pm 35.4 29.7 14.1 28 13.5 NW 37 50 20 27 1012.1 1008.3 0.0
17/12:30pm 33.8 28.8 13.3 29 12.8 NNW 32 41 17 22 1012.8 1009.1 0.0
17/12:15pm 32.7 28.1 13.4 31 12.0 NNW 30 46 16 25 1012.9 1009.2 0.0
17/12:00pm 31.9 26.5 12.7 31 11.8 N 33 46 18 25 1013.3 1009.5 0.0
17/11:51am 32.6 27.6 13.3 31 12.0 NNW 32 46 17 25 1013.3 1009.5 0.0
17/11:30am 33.2 28.5 13.3 30 12.4 NNW 30 43 16 23 1013.6 1009.9 0.0
17/11:00am 32.8 28.2 13.4 30 12.1 NNW 30 48 16 26 1013.7 1010.0 0.0
17/10:59am 32.2 27.4 12.9 31 11.9 NNW 30 48 16 26 1013.7 1010.0 0.0
17/10:30am 31.3 26.7 12.2 31 11.6 NNW 28 39 15 21 1013.8 1010.1 0.0
17/10:00am 29.0 24.3 10.6 32 10.8 NNW 26 35 14 19 1014.0 1010.3 0.0
17/09:30am 28.0 23.7 10.7 34 10.1 N 24 32 13 17 1014.2 1010.5 0.0
17/09:00am 24.3 24.1 10.6 42 7.9 WNW 2 9 1 5 1014.4 1010.7 0.0
17/08:30am 20.8 19.9 10.6 52 5.8 W 6 7 3 4 1014.4 1010.7 0.0

Other Formats:

Comma delimited format used in spreadsheet applications
http://www.bom.gov.au/fwo/IDN60801/IDN60801.94729.axf

JavaScript Object Notation format (JSON) in row-major order
http://www.bom.gov.au/fwo/IDN60801/IDN60801.94729.json